Relevés horaires Chievres (Belgique)


Relevés horaires à Chievres - Lundi 07 Mars 2022
Heure UTC1 Température [°C] Vent [km/h] Hum. [%] Pres.4 [hPa] Visi. [Km] Nébu. [octa] Préc.5 [mm] Cond.
2m. Res. Ros. Dir.2 Vit. Moy. Raf.3
23:00 0.4 0.4 -5.1 E 3.7 -- 5.6 66 1022(-0.4/3h) 20 -- -- --
22:00 0.2 0.2 -4.3 E 3.7 -- 7.4 72 1022.3(0.2/3h) 20 -- -- --
21:00 1.1 -0.6 -4.2 E 5.6 -- 11.1 68 1022.6(0.6/3h) 20 -- -- --
20:00 2.2 0.7 -4.3 E 5.6 -- 11.1 62 1022.2(0.3/3h) 20 -- -- --
19:00 2.4 0.3 -4.2 ENE 7.4 -- 11.1 62 1022.1(0.0/3h) 20 -- -- --
18:00 3.7 1.8 -4.6 ENE 7.4 -- 18.5 55 1021.7(-0.8/3h) 20 -- -- --
17:00 4.8 2.2 -4.4 E 11.1 -- 16.7 51 1021.8(-1.2/3h) 20 -- -- --
16:00 5.3 2.8 -4.2 E 11.1 -- 18.5 50 1022.1(-2.1/3h) 20 -- -- --
15:00 5.1 2.6 -4.4 E 11.1 -- 18.5 50 1022.6(-2.4/3h) 20 -- -- --
14:00 5.2 3.1 -3.6 E 9.3 -- 18.5 53 1023.2(-2.6/3h) 20 -- -- --
13:00 4.0 1.2 -4.4 E 11.1 -- 18.5 54 1024.2(-2.0/3h) 18 -- -- --
12:00 2.8 -0.2 -5.5 E 11.1 -- 18.5 54 1025.2(-1.4/3h) 20 -- -- --
11:00 2.2 -0.9 -5.7 E 11.1 -- 18.5 56 1026(-0.7/3h) 20 -- -- --
10:00 1.8 -1.8 -6.1 E 13.0 -- 18.5 56 1026.4(0.0/3h) 20 -- -- --
09:00 0.7 -2.3 -6.1 E 9.3 -- 14.8 60 1026.7(0.3/3h) 20 -- -- --
08:00 -0.3 -3.5 -5.0 ENE 9.3 -- 11.1 70 1026.7(0.3/3h) 20 -- -- --
07:00 -1.6 -3.7 -4.6 ENE 5.6 -- 7.4 80 1026.5(0.0/3h) 19 -- -- --
06:00 -1.9 -4 -4.7 NE 5.6 -- 9.3 81 1026.5(0.2/3h) 17 -- -- --
05:00 -1.7 -3.8 -4.4 NE 5.6 -- 9.3 82 1026.5(0.0/3h) 18 -- -- --
04:00 -1.3 -3.3 -4.0 NE 5.6 -- 9.3 82 1026.2(-0.5/3h) 19 -- -- --
03:00 -1.0 -3.7 -3.9 NNE 7.4 -- 9.3 81 1026.2(-0.5/3h) 20 -- -- --
02:00 -0.6 -2.5 -3.7 NE 5.6 -- 9.3 79 1026.5(-0.2/3h) 20 -- -- --
01:00 -0.4 -2.3 -3.7 NNE 5.6 -- 7.4 78 1026.9(0.1/3h) 20 -- -- --
00:00 -0.5 -2.4 -3.5 N 5.6 -- 11.1 80 1026.7(0.0/3h) 19 -- -- --

1 Coordinated Universal Time. Actuellement il est 15:00 locale et 14:00 UTC.

2 Le vent souffle depuis la direction indiquée vers la direction oposée.

3 Les rafales max. sont disponible 40 min après l'heure du relevé.

4 Pour les stations d'altitude (plus de 600m) le géopotentiel du niveau le plus proche de la pression obligatoire est indiqué.

5 Les stations disposant d'un diffuseur peuvent indiquer "trace". Cela signifie que des précipitations ont touchés le sol mais que la quantité est inférieure à 0.1 mm.

Récapitulatif de la journée
Température [°C] Vent [km/h] Ensoleillement4 [h] Precipitations totale5 [mm] Pression [Hpa]
Min1 Max.2 Moy.3 Max. Min Max.
-1.9 5.5 0 18.5 0 h 0 min 0 1021.7 1026.9

1 Température minimale relevée entre 18:00 UTC la veille et 18:00 UTC le jour donné.

2 Température maximale relevée entre 06:00 UTC le jour donné et 06:00 UTC le lendemain.

3 Vent moyen de la journée basé sur les relevés horaires.

4 Ensoleillement en heures relevé entre 06:00 UTC la veille et 06:00 UTC le jour donné.

5 Précipitations totales tombées entre 06:00 UTC la jour donné et 06:00 UTC le lendemain.

Graphiques horaires